Highland Heights, Kentucky
Current Conditions -  °F | °C
As of 6:53 PM on Wednesday 22 Oct 2014 (Local Time) from KLUK Reporting Station
Overcast Overcast  
Wind Chill: 51°   Ceiling: 3100
Heat Index: 51°   Visibility: 10mi
Dew Point: 40°   Wind: 7mph
Humidity: 66%   Direction: 60°ENE
Pressure: 30.28"   Gusts: NA
Location:  39.0316°N, 84.4619°W
Report Text: KLUK 222253Z 06006KT 10SM OVC031 11/04 A3028 RMK AO2 SLP254 T01060044
Loading
Personal Weather Stations






























Interactive Weather Map
Tropical Storm Tracking
New forecast layout! Learn more

10-Day Weather Forecast

Advertisements
Track Severe Weather on mobile